Terminal Aerodrome Forecast
Issued by NWS

Home | Current Version | Previous Version | Text Only | Print | Product List | Glossary Off
Versions: 1 2 3 4 5 6 7 8 9 10 11 12 13 14 15 16 17 18 19

000
FTUS43 KMPX 291227 AAA
TAFAXN
TAF AMD
KAXN 291227Z 2912/3012 12012G18KT P6SM VCTS SCT025CB BKN060 OVC110
     FM291300 13011KT P6SM SCT030 BKN120
     FM291500 18010KT P6SM SCT035 BKN250
     FM292000 29007KT P6SM SCT060 BKN090
      TEMPO 2920/2923 5SM -TSRA BKN060CB OVC090
     FM300200 06005KT P6SM FEW060 SCT090=

USA.gov is the U.S. government's official web portal to all federal, state and local government web resources and services.